Time;durP1;ratioP1;P1;durP2;ratioP2;P2;SDS_P1;SDS_P2;PMS_P1;PMS_P2;Temp;Humidity;BMP_temperature;BMP_pressure;BME280_temperature;BME280_humidity;BME280_pressure;Samples;Min_cycle;Max_cycle;Signal;HPM_P1;HPM_P2
2023/06/12 04:32:59;;;;;;;;;15.75;14.25;;;;;20.59;74.11;101014.81;4974214;28;45778;-79
2023/06/12 04:35:24;;;;;;;;;16.75;14.50;;;;;20.49;74.71;101005.72;4972927;28;46646;-79
2023/06/12 04:37:52;;;;;;;;;14.00;13.25;;;;;20.52;74.82;101020.91;4974815;28;45449;-80
2023/06/12 04:40:20;;;;;;;;;16.50;14.50;;;;;20.41;75.00;101000.03;4974554;28;45342;-79
2023/06/12 04:42:46;;;;;;;;;13.50;11.75;;;;;20.51;74.97;101022.75;4974705;28;46473;-79
2023/06/12 04:45:14;;;;;;;;;17.25;15.50;;;;;20.39;74.43;100994.72;4974915;28;46219;-79
2023/06/12 04:47:40;;;;;;;;;17.00;15.00;;;;;20.50;74.75;101022.91;4974780;28;45301;-80
2023/06/12 04:50:09;;;;;;;;;17.50;15.50;;;;;20.44;75.05;101026.13;4978504;28;45796;-80
2023/06/12 04:52:35;;;;;;;;;14.50;11.25;;;;;20.46;75.08;101026.88;4977705;28;45192;-80
2023/06/12 04:55:01;;;;;;;;;14.00;12.00;;;;;20.43;74.84;101016.22;4977311;28;45774;-79
2023/06/12 04:57:27;;;;;;;;;17.00;11.75;;;;;20.25;74.27;100986.75;4976595;28;45374;-81
2023/06/12 04:59:52;;;;;;;;;14.00;12.25;;;;;20.46;74.21;101013.25;4977598;28;45312;-79
2023/06/12 05:02:18;;;;;;;;;13.25;12.75;;;;;20.64;73.81;101033.53;4977405;28;45476;-79
2023/06/12 05:04:43;;;;;;;;;16.75;14.25;;;;;20.68;73.61;101030.41;4977055;28;46064;-81
2023/06/12 05:07:16;;;;;;;;;13.75;13.75;;;;;20.60;73.77;101029.31;4976182;28;45873;-79
2023/06/12 05:09:43;;;;;;;;;11.50;11.50;;;;;20.50;73.94;101022.91;4976989;28;45278;-78
2023/06/12 05:12:09;;;;;;;;;12.75;10.75;;;;;20.48;73.98;101030.34;4974069;28;45516;-76
2023/06/12 05:14:34;;;;;;;;;13.75;13.00;;;;;20.45;74.01;101023.28;4976862;28;46052;-78
2023/06/12 05:17:00;;;;;;;;;14.00;12.50;;;;;20.62;73.29;101032.78;4976975;28;45382;-73
2023/06/12 05:19:26;;;;;;;;;13.50;12.75;;;;;20.66;73.06;101048.75;4977176;28;45393;-74
2023/06/12 05:21:52;;;;;;;;;12.75;9.00;;;;;20.68;72.59;101040.44;4974928;28;45549;-74
2023/06/12 05:24:17;;;;;;;;;14.25;11.25;;;;;20.54;72.49;101013.47;4960862;28;45877;-77
2023/06/12 05:26:42;;;;;;;;;13.25;10.00;;;;;20.61;72.67;101034.63;4991715;28;45616;-77
2023/06/12 05:29:08;;;;;;;;;7.50;5.00;;;;;20.58;72.61;101031.31;4992361;28;45447;-74
2023/06/12 05:31:33;;;;;;;;;10.75;10.75;;;;;20.57;72.28;101033.16;4976531;28;45440;-75
2023/06/12 05:33:59;;;;;;;;;14.50;13.50;;;;;20.60;72.46;101041.06;4976912;28;46036;-76
2023/06/12 05:36:24;;;;;;;;;11.25;10.50;;;;;20.64;72.87;101031.66;4977151;28;45259;-75
2023/06/12 05:38:50;;;;;;;;;9.50;8.25;;;;;20.53;72.52;101015.34;4976850;28;45438;-74
2023/06/12 05:41:15;;;;;;;;;8.50;6.50;;;;;20.52;72.51;101010.88;4977153;28;45515;-73
2023/06/12 05:43:44;;;;;;;;;13.00;11.75;;;;;20.60;72.52;101037.47;4976654;28;45313;-74
2023/06/12 05:46:10;;;;;;;;;10.75;10.50;;;;;20.55;72.49;101042.47;4977110;28;45605;-74
2023/06/12 05:48:51;;;;;;;;;13.50;12.50;;;;;20.45;72.54;101036.03;5092875;27;45351;-50
2023/06/12 05:51:17;;;;;;;;;14.00;11.75;;;;;20.49;72.87;101037.53;5076115;28;45312;-53
2023/06/12 05:53:44;;;;;;;;;9.75;9.75;;;;;20.52;72.78;101031.81;5074240;27;50772;-49
2023/06/12 05:56:13;;;;;;;;;11.50;10.50;;;;;20.55;72.24;101032.44;5066338;28;45477;-48
2023/06/12 05:58:39;;;;;;;;;12.25;11.25;;;;;20.63;72.22;101035.38;5074611;27;46335;-50
2023/06/12 06:01:05;;;;;;;;;10.25;8.50;;;;;20.63;72.23;101026.34;5075456;27;45355;-48
2023/06/12 06:03:32;;;;;;;;;11.50;9.50;;;;;20.78;71.35;101030.50;5079566;27;45465;-51
2023/06/12 06:05:58;;;;;;;;;9.25;9.25;;;;;20.91;71.29;101046.69;5072017;28;45547;-51
2023/06/12 06:08:23;;;;;;;;;12.50;9.75;;;;;20.94;70.14;101046.41;5073960;27;46040;-51
2023/06/12 06:10:48;;;;;;;;;15.25;12.75;;;;;20.91;69.97;101049.44;5075378;28;45361;-51
2023/06/12 06:13:14;;;;;;;;;10.25;9.50;;;;;20.88;70.32;101047.81;5075326;27;45204;-54
2023/06/12 06:15:39;;;;;;;;;8.75;8.75;;;;;20.89;70.48;101045.94;5074762;28;45451;-52
2023/06/12 06:18:06;;;;;;;;;8.25;8.25;;;;;20.94;70.07;101047.28;5074988;28;46130;-52
2023/06/12 06:20:31;;;;;;;;;11.75;10.00;;;;;20.99;69.94;101052.38;5075535;28;45645;-52
2023/06/12 06:22:57;;;;;;;;;9.25;8.25;;;;;20.97;70.08;101038.88;5075000;27;45379;-53
2023/06/12 06:25:23;;;;;;;;;13.00;9.25;;;;;21.07;69.94;101045.28;5074216;28;45682;-50
2023/06/12 06:27:48;;;;;;;;;9.00;8.00;;;;;21.12;69.45;101053.03;5074740;27;46165;-54
2023/06/12 06:30:14;;;;;;;;;9.75;7.00;;;;;21.17;69.03;101047.22;5075042;28;51012;-51
2023/06/12 06:32:39;;;;;;;;;10.25;7.00;;;;;21.18;69.03;101060.72;5075315;28;45382;-50
2023/06/12 06:35:05;;;;;;;;;10.50;9.50;;;;;21.23;68.85;101054.91;5074938;28;45318;-52
2023/06/12 06:37:31;;;;;;;;;9.00;8.00;;;;;21.31;68.91;101049.66;5075402;27;46445;-51
2023/06/12 06:39:56;;;;;;;;;9.00;8.00;;;;;21.29;68.33;101040.72;5074690;28;45366;-53
2023/06/12 06:42:21;;;;;;;;;11.00;9.50;;;;;21.38;67.95;101051.72;5075221;28;45389;-49
2023/06/12 06:44:49;;;;;;;;;4.00;4.00;;;;;21.34;67.46;101053.00;5075072;28;45321;-53
2023/06/12 06:47:14;;;;;;;;;8.00;6.75;;;;;21.27;67.24;101051.75;5081408;27;46345;-51
2023/06/12 06:49:39;;;;;;;;;6.00;5.50;;;;;21.24;67.60;101051.19;5094892;27;45296;-50
2023/06/12 06:52:06;;;;;;;;;8.25;7.00;;;;;21.16;67.76;101035.44;5095466;27;45323;-50
2023/06/12 06:54:31;;;;;;;;;6.50;5.50;;;;;21.31;67.88;101047.78;5095070;27;46887;-49
2023/06/12 06:56:57;;;;;;;;;7.75;5.75;;;;;21.38;67.29;101050.84;5094369;27;55691;-51
2023/06/12 06:59:22;;;;;;;;;10.50;9.50;;;;;21.46;67.21;101046.47;5086463;27;45327;-51
2023/06/12 07:01:48;;;;;;;;;12.50;8.00;;;;;21.52;67.07;101043.19;5081389;28;45443;-52
2023/06/12 07:04:14;;;;;;;;;13.75;9.00;;;;;21.59;67.31;101039.94;5080050;28;45435;-49
2023/06/12 07:06:39;;;;;;;;;10.00;8.00;;;;;21.65;66.98;101045.72;5081194;28;46657;-51
2023/06/12 07:09:04;;;;;;;;;9.50;7.25;;;;;21.69;66.09;101044.44;5080675;28;45465;-53
2023/06/12 07:11:30;;;;;;;;;10.75;10.75;;;;;21.61;66.33;101037.94;5081545;28;45321;-50
2023/06/12 07:13:56;;;;;;;;;9.75;9.00;;;;;21.53;66.14;101052.25;5080832;28;46055;-51
2023/06/12 07:16:21;;;;;;;;;8.25;7.75;;;;;21.53;67.16;101052.25;5080224;28;46833;-52
2023/06/12 07:18:47;;;;;;;;;8.50;7.25;;;;;21.55;66.98;101041.19;5080452;28;45384;-51
2023/06/12 07:21:14;;;;;;;;;11.75;10.75;;;;;21.57;66.74;101047.41;5081260;28;45308;-50
2023/06/12 07:23:39;;;;;;;;;12.00;10.75;;;;;21.56;67.21;101051.13;5080250;28;45421;-51
2023/06/12 07:26:05;;;;;;;;;13.75;12.75;;;;;21.55;66.91;101042.06;5080286;28;45185;-50
2023/06/12 07:28:30;;;;;;;;;15.25;10.75;;;;;21.48;67.53;101041.75;5080873;28;45341;-51
2023/06/12 07:30:55;;;;;;;;;12.75;9.25;;;;;21.47;67.73;101044.59;5080528;28;45256;-54
2023/06/12 07:33:20;;;;;;;;;13.25;12.25;;;;;21.55;67.41;101052.97;5079721;28;57097;-51
2023/06/12 07:35:46;;;;;;;;;13.75;11.25;;;;;21.57;67.46;101050.13;5080582;28;51948;-52
2023/06/12 07:38:12;;;;;;;;;9.50;9.50;;;;;21.54;67.82;101048.50;5080637;28;45327;-52
2023/06/12 07:40:37;;;;;;;;;17.25;10.50;;;;;21.52;67.56;101042.34;5079955;28;45391;-49
2023/06/12 07:43:02;;;;;;;;;11.75;11.75;;;;;21.50;67.53;101045.22;5084123;27;45498;-50
2023/06/12 07:45:28;;;;;;;;;13.75;12.00;;;;;21.51;68.13;101036.03;5083026;27;46333;-52
2023/06/12 07:47:55;;;;;;;;;16.25;14.25;;;;;21.61;67.50;101051.56;5080411;28;45380;-49
2023/06/12 07:50:20;;;;;;;;;14.75;13.00;;;;;21.62;68.00;101045.13;5080627;28;45368;-53
2023/06/12 07:52:45;;;;;;;;;10.25;10.00;;;;;21.71;67.89;101039.72;5079878;28;45323;-49
2023/06/12 07:55:11;;;;;;;;;11.25;11.25;;;;;21.80;67.49;101035.31;5079935;28;55696;-48
2023/06/12 07:57:36;;;;;;;;;13.75;11.00;;;;;21.90;67.71;101047.16;5080486;28;45374;-51
2023/06/12 08:00:05;;;;;;;;;19.00;13.75;;;;;21.92;66.84;101042.44;5080514;28;45481;-50
2023/06/12 08:02:33;;;;;;;;;13.75;11.50;;;;;21.97;67.27;101037.44;5080439;28;46085;-48
2023/06/12 08:04:59;;;;;;;;;13.50;11.75;;;;;22.01;67.15;101030.72;5079758;28;47363;-50
2023/06/12 08:07:26;;;;;;;;;14.50;13.00;;;;;22.06;66.37;101033.03;5079729;28;45556;-50
2023/06/12 08:09:51;;;;;;;;;11.50;11.50;;;;;22.09;66.13;101046.44;5079602;28;45416;-49
2023/06/12 08:12:17;;;;;;;;;12.00;10.75;;;;;22.08;66.17;101039.25;5079357;28;45381;-50
2023/06/12 08:14:42;;;;;;;;;7.75;7.75;;;;;22.04;66.39;101043.22;5080183;28;46166;-51
2023/06/12 08:17:08;;;;;;;;;10.00;9.25;;;;;22.12;66.50;101041.53;5079665;28;59298;-50
2023/06/12 08:19:34;;;;;;;;;11.50;10.00;;;;;22.17;66.83;101025.63;5080378;28;45371;-51
2023/06/12 08:22:00;;;;;;;;;12.25;10.50;;;;;22.30;65.97;101025.38;5079960;28;45379;-52
2023/06/12 08:24:29;;;;;;;;;10.25;9.50;;;;;22.33;65.64;101022.38;5078901;28;46240;-48
2023/06/12 08:26:55;;;;;;;;;17.00;11.50;;;;;22.35;65.64;101019.50;5078822;28;45375;-52
2023/06/12 08:29:21;;;;;;;;;14.75;11.75;;;;;22.40;65.53;101015.34;5080366;28;45376;-51
2023/06/12 08:31:46;;;;;;;;;13.25;12.50;;;;;22.47;64.96;101013.78;5080042;28;45487;-52
2023/06/12 08:34:11;;;;;;;;;10.00;6.25;;;;;22.50;64.80;101008.03;5079250;28;61381;-49
2023/06/12 08:36:37;;;;;;;;;9.25;9.25;;;;;22.59;64.93;101015.38;5080673;28;45295;-52
2023/06/12 08:39:03;;;;;;;;;11.00;9.00;;;;;22.61;64.87;101015.25;5080205;28;45296;-49
2023/06/12 08:41:32;;;;;;;;;10.75;9.50;;;;;22.69;64.91;101014.53;5080478;28;45221;-52
2023/06/12 08:43:59;;;;;;;;;13.75;13.25;;;;;22.79;64.46;101012.72;5079412;28;45394;-59
2023/06/12 08:46:29;;;;;;;;;12.25;11.75;;;;;22.84;63.70;101015.88;5079888;28;45370;-58
2023/06/12 08:48:55;;;;;;;;;11.50;9.75;;;;;22.86;63.87;101006.53;5079488;28;45272;-60
2023/06/12 08:51:20;;;;;;;;;11.75;10.50;;;;;22.92;63.73;101003.22;5079578;28;45470;-59
2023/06/12 08:53:46;;;;;;;;;13.75;11.25;;;;;23.00;63.73;100997.91;5079416;28;46421;-59
2023/06/12 08:56:13;;;;;;;;;16.25;12.75;;;;;23.03;63.10;101007.69;5079196;28;45380;-59
2023/06/12 08:58:38;;;;;;;;;16.75;16.00;;;;;22.96;63.50;101004.69;5079101;28;45392;-59
2023/06/12 09:01:06;;;;;;;;;18.25;14.75;;;;;23.04;63.46;101009.44;5078933;28;45848;-57
2023/06/12 09:03:35;;;;;;;;;20.00;15.25;;;;;23.08;63.38;101007.25;5079761;28;46134;-58
2023/06/12 09:06:05;;;;;;;;;15.50;12.25;;;;;23.12;63.22;101004.09;5079560;28;45609;-58
2023/06/12 09:08:31;;;;;;;;;16.00;15.25;;;;;23.13;63.59;101007.69;5079162;28;45376;-59
2023/06/12 09:10:57;;;;;;;;;16.25;12.50;;;;;23.08;62.92;101002.66;5079128;28;45343;-59
2023/06/12 09:13:23;;;;;;;;;18.50;11.50;;;;;23.08;63.20;101001.78;5079205;28;45387;-58
2023/06/12 09:15:52;;;;;;;;;15.75;12.75;;;;;23.07;63.48;101003.66;5078296;28;50069;-59
2023/06/12 09:18:19;;;;;;;;;16.75;12.50;;;;;23.06;63.52;100992.84;5065900;28;45312;-59
2023/06/12 09:20:45;;;;;;;;;21.75;18.50;;;;;23.08;63.37;100990.84;5078945;28;45581;-59
2023/06/12 09:23:12;;;;;;;;;18.75;13.75;;;;;23.10;63.44;100989.69;5078567;28;46291;-59
2023/06/12 09:25:43;;;;;;;;;28.00;19.25;;;;;23.07;63.07;100994.56;5079141;28;45342;-59
2023/06/12 09:28:10;;;;;;;;;21.00;14.75;;;;;23.09;62.96;101006.25;5079042;28;45518;-59
2023/06/12 09:30:39;;;;;;;;;15.50;15.50;;;;;23.12;62.72;100998.63;5079008;28;45923;-59
2023/06/12 09:33:06;;;;;;;;;14.75;14.50;;;;;23.20;63.33;100990.56;5081367;27;46020;-60
2023/06/12 09:35:31;;;;;;;;;22.00;16.25;;;;;23.26;61.94;101000.03;5078896;28;45383;-58
2023/06/12 09:37:57;;;;;;;;;12.75;12.75;;;;;23.31;62.28;101000.47;5079283;28;45312;-59
2023/06/12 09:40:23;;;;;;;;;15.00;12.50;;;;;23.38;62.46;100998.88;5078805;28;45290;-59
2023/06/12 09:42:49;;;;;;;;;14.00;13.75;;;;;23.43;62.28;100996.56;5079112;28;46051;-59
2023/06/12 09:45:20;;;;;;;;;17.25;15.75;;;;;23.53;62.21;100997.44;5078846;28;45493;-58
2023/06/12 09:47:50;;;;;;;;;17.00;15.25;;;;;23.50;61.82;100995.00;5078349;28;45694;-59
2023/06/12 09:50:17;;;;;;;;;13.75;12.50;;;;;23.56;62.01;101005.34;5078758;28;45518;-59
2023/06/12 09:52:45;;;;;;;;;13.25;12.25;;;;;23.67;61.74;100998.84;5078315;28;45398;-59
2023/06/12 09:55:18;;;;;;;;;14.50;14.00;;;;;23.76;61.19;100998.81;5077872;28;45362;-57
2023/06/12 09:57:54;;;;;;;;;11.00;9.25;;;;;23.80;61.03;101001.25;5078006;28;45329;-57
2023/06/12 10:00:20;;;;;;;;;16.00;16.00;;;;;23.90;60.65;101007.56;5065176;28;45330;-58
2023/06/12 10:02:50;;;;;;;;;15.75;14.75;;;;;23.98;60.41;101008.56;5078692;28;45289;-59
2023/06/12 10:05:20;;;;;;;;;20.75;17.75;;;;;24.05;60.61;100995.97;5078799;28;45388;-59
2023/06/12 10:07:52;;;;;;;;;18.00;16.25;;;;;24.10;60.24;101006.47;5078534;28;45322;-58
2023/06/12 10:10:19;;;;;;;;;17.75;16.75;;;;;24.21;59.78;100997.22;5077346;28;45475;-60
2023/06/12 10:12:44;;;;;;;;;20.75;15.00;;;;;24.29;60.04;101000.06;5078447;28;47073;-59
2023/06/12 10:15:11;;;;;;;;;23.00;18.00;;;;;24.30;59.97;100994.44;5078427;28;45284;-58
2023/06/12 10:17:39;;;;;;;;;16.00;15.00;;;;;24.29;59.67;100986.38;5078603;28;45259;-62
2023/06/12 10:20:08;;;;;;;;;20.25;15.75;;;;;24.42;59.88;101006.03;5078485;28;46015;-63
2023/06/12 10:22:34;;;;;;;;;17.75;17.25;;;;;24.50;59.63;100998.78;5078091;28;46294;-62
2023/06/12 10:25:01;;;;;;;;;15.75;14.50;;;;;24.58;59.16;101005.38;5078221;28;45359;-63
2023/06/12 10:27:28;;;;;;;;;23.25;18.25;;;;;24.65;58.91;101001.00;5078641;28;45262;-64
2023/06/12 10:29:59;;;;;;;;;18.25;17.50;;;;;24.70;59.24;100995.91;5078638;28;45442;-63
2023/06/12 10:32:28;;;;;;;;;17.25;15.25;;;;;24.76;58.76;100998.00;5078402;28;45249;-63
2023/06/12 10:34:54;;;;;;;;;15.75;15.00;;;;;24.81;59.12;100996.56;5080637;28;45556;-64
2023/06/12 10:37:23;;;;;;;;;21.00;19.25;;;;;24.88;59.00;100996.78;5082057;28;45463;-64
2023/06/12 10:40:10;;;;;;;;;24.00;18.00;;;;;24.92;58.57;100997.38;5081549;28;46276;-62
2023/06/12 10:42:51;;;;;;;;;23.25;19.00;;;;;24.94;57.30;100998.06;5081739;28;46362;-63
2023/06/12 10:45:31;;;;;;;;;21.00;20.50;;;;;24.92;57.55;100990.00;5081720;28;45470;-64
2023/06/12 10:48:02;;;;;;;;;23.50;18.75;;;;;24.89;57.61;100996.63;5081775;28;45487;-62
2023/06/12 10:50:28;;;;;;;;;17.50;17.00;;;;;24.92;58.25;100991.88;5081429;28;45310;-60
2023/06/12 10:52:55;;;;;;;;;18.75;18.50;;;;;24.96;58.05;100993.28;5081519;28;45396;-60
2023/06/12 10:55:43;;;;;;;;;23.00;20.75;;;;;24.95;57.81;100992.41;5080808;28;45339;-61
2023/06/12 10:58:18;;;;;;;;;22.00;20.75;;;;;24.95;57.84;100989.69;5081907;28;45461;-61
2023/06/12 11:00:52;;;;;;;;;23.25;21.50;;;;;24.94;58.05;100998.91;5080681;28;45556;-62
2023/06/12 11:03:29;;;;;;;;;22.00;20.75;;;;;24.96;58.55;100987.78;5081520;28;45182;-63
2023/06/12 11:05:59;;;;;;;;;20.75;18.75;;;;;24.92;58.18;100992.75;5081254;28;45425;-62
2023/06/12 11:08:30;;;;;;;;;25.25;22.75;;;;;24.81;57.71;100988.31;5081303;28;45232;-60
2023/06/12 11:10:56;;;;;;;;;24.50;22.50;;;;;24.73;58.46;100990.13;5080867;28;45368;-62
2023/06/12 11:13:23;;;;;;;;;20.75;20.75;;;;;24.70;58.50;100998.66;5081341;28;45398;-61
2023/06/12 11:15:51;;;;;;;;;21.75;16.25;;;;;24.73;59.13;100992.88;5080908;28;45398;-61
2023/06/12 11:18:16;;;;;;;;;24.75;19.75;;;;;24.76;59.30;100990.66;5081517;28;45347;-61
2023/06/12 11:20:42;;;;;;;;;25.75;22.50;;;;;24.75;58.33;100991.66;5081135;28;45360;-62
2023/06/12 11:23:07;;;;;;;;;23.50;21.00;;;;;24.73;59.08;100995.59;5076234;27;45426;-60
2023/06/12 11:25:44;;;;;;;;;20.00;20.00;;;;;24.74;58.98;100992.72;5077731;27;45415;-61
2023/06/12 11:28:12;;;;;;;;;19.00;18.50;;;;;24.78;58.65;100996.84;5081018;28;45351;-61
2023/06/12 11:30:37;;;;;;;;;25.50;22.75;;;;;24.85;58.77;100988.84;5079433;28;45488;-61
2023/06/12 11:33:07;;;;;;;;;21.25;21.25;;;;;24.90;58.80;100981.03;5080432;28;46280;-62
2023/06/12 11:35:38;;;;;;;;;20.00;20.00;;;;;24.95;58.35;100983.31;5080307;28;45255;-61
2023/06/12 11:38:05;;;;;;;;;24.50;20.75;;;;;25.02;58.48;100984.41;5080941;28;45395;-62
2023/06/12 11:40:30;;;;;;;;;26.00;23.25;;;;;25.10;57.60;100976.25;5080278;28;45426;-62
2023/06/12 11:42:56;;;;;;;;;22.75;21.25;;;;;25.20;58.25;100971.53;5079996;28;46191;-62
2023/06/12 11:45:21;;;;;;;;;23.50;22.50;;;;;25.30;57.09;100971.44;5080775;28;45204;-64
2023/06/12 11:47:47;;;;;;;;;19.50;19.00;;;;;25.31;56.85;100953.97;5080627;28;45569;-65
2023/06/12 11:50:15;;;;;;;;;20.25;19.25;;;;;25.42;57.36;100973.78;5080111;28;46436;-62
2023/06/12 11:52:44;;;;;;;;;20.75;19.75;;;;;25.50;56.80;100973.00;5078879;28;45406;-62
2023/06/12 11:55:17;;;;;;;;;20.00;19.50;;;;;25.58;56.69;100971.16;5080156;28;45408;-61
2023/06/12 11:57:50;;;;;;;;;20.25;19.50;;;;;25.63;56.17;100967.94;5080808;28;45311;-60
2023/06/12 12:00:19;;;;;;;;;20.00;18.25;;;;;25.68;56.48;100964.72;5080397;28;45588;-65
2023/06/12 12:02:49;;;;;;;;;25.00;23.50;;;;;25.74;56.20;100962.19;5080399;28;47165;-61
2023/06/12 12:05:20;;;;;;;;;26.25;19.25;;;;;25.80;56.67;100953.28;5080182;28;45477;-61
2023/06/12 12:07:49;;;;;;;;;20.50;18.75;;;;;25.90;56.11;100967.75;5079407;28;45548;-61
2023/06/12 12:10:15;;;;;;;;;17.75;17.50;;;;;26.04;56.08;100959.91;5080437;28;45331;-61
2023/06/12 12:12:43;;;;;;;;;22.50;20.50;;;;;26.16;55.80;100961.34;5080148;28;46345;-62
2023/06/12 12:15:10;;;;;;;;;19.25;18.75;;;;;26.26;56.01;100959.38;5080399;28;45406;-62
2023/06/12 12:17:38;;;;;;;;;22.75;20.25;;;;;26.33;55.17;100960.41;5079633;28;45420;-62
2023/06/12 12:20:05;;;;;;;;;21.75;20.50;;;;;26.40;55.58;100966.97;5080174;28;46042;-62
2023/06/12 12:22:31;;;;;;;;;22.25;21.00;;;;;26.46;55.01;100962.66;5079358;28;45494;-62
2023/06/12 12:24:57;;;;;;;;;20.25;19.75;;;;;26.50;55.05;100955.81;5080166;28;45355;-62
2023/06/12 12:27:22;;;;;;;;;21.50;19.00;;;;;26.44;55.01;100945.50;5080298;28;45391;-62
2023/06/12 12:29:48;;;;;;;;;22.50;20.00;;;;;26.38;55.54;100944.25;5080042;28;45979;-62
2023/06/12 12:32:13;;;;;;;;;25.50;21.75;;;;;26.49;55.33;100954.09;5080060;28;45297;-62
2023/06/12 12:34:39;;;;;;;;;20.00;18.75;;;;;26.50;55.92;100947.56;5079991;28;45339;-60
2023/06/12 12:37:05;;;;;;;;;24.00;20.25;;;;;26.53;54.90;100950.00;5079481;28;45258;-61
2023/06/12 12:39:30;;;;;;;;;28.25;23.50;;;;;26.62;55.10;100944.34;5065283;28;46196;-60
2023/06/12 12:41:55;;;;;;;;;26.50;22.00;;;;;26.58;54.77;100933.84;5079524;28;46368;-63
2023/06/12 12:44:21;;;;;;;;;23.00;21.00;;;;;26.68;54.84;100934.56;5079166;28;51003;-62
2023/06/12 12:46:46;;;;;;;;;23.50;20.75;;;;;26.81;54.99;100934.03;5079134;28;47556;-62
2023/06/12 12:49:12;;;;;;;;;24.50;21.25;;;;;26.95;54.66;100936.16;5079841;28;45466;-61
2023/06/12 12:51:37;;;;;;;;;23.50;20.25;;;;;27.08;54.69;100928.22;5079502;28;46227;-62
2023/06/12 12:54:02;;;;;;;;;24.00;20.25;;;;;27.11;54.03;100930.66;5079668;28;45239;-61
2023/06/12 12:56:28;;;;;;;;;19.50;17.00;;;;;27.10;54.43;100923.41;5078860;28;45346;-63
2023/06/12 12:58:53;;;;;;;;;22.50;21.00;;;;;27.01;53.61;100921.69;5085668;27;45463;-62
2023/06/12 13:01:19;;;;;;;;;19.00;18.00;;;;;26.93;54.06;100930.81;5079111;28;57617;-61
2023/06/12 13:03:44;;;;;;;;;18.25;18.00;;;;;26.92;54.62;100925.47;5060948;28;45391;-60
2023/06/12 13:06:12;;;;;;;;;21.25;17.50;;;;;26.92;54.39;100922.72;5079108;28;45366;-62
2023/06/12 13:08:38;;;;;;;;;25.00;20.00;;;;;26.92;54.71;100917.22;5079389;28;45532;-61
2023/06/12 13:11:04;;;;;;;;;22.75;20.25;;;;;26.86;54.54;100918.75;5078615;28;45400;-61
2023/06/12 13:13:29;;;;;;;;;22.75;20.50;;;;;26.84;54.36;100917.19;5078086;28;45330;-61
2023/06/12 13:15:55;;;;;;;;;21.00;20.75;;;;;26.79;54.61;100914.09;5078859;28;45354;-60
2023/06/12 13:18:20;;;;;;;;;18.50;17.25;;;;;26.79;54.71;100916.84;5079456;28;45200;-61
2023/06/12 13:20:46;;;;;;;;;19.25;16.75;;;;;26.80;55.21;100913.91;5079051;28;45284;-62
2023/06/12 13:23:11;;;;;;;;;26.75;19.75;;;;;26.80;54.63;100908.41;5078735;28;51780;-61
2023/06/12 13:25:38;;;;;;;;;24.50;21.50;;;;;26.79;55.35;100903.97;5079032;28;45326;-59
2023/06/12 13:28:04;;;;;;;;;17.25;15.50;;;;;26.82;55.61;100911.00;5078162;28;45445;-60
2023/06/12 13:30:29;;;;;;;;;21.25;17.75;;;;;26.88;55.33;100910.34;5078276;28;45475;-60
2023/06/12 13:32:55;;;;;;;;;19.50;18.50;;;;;26.92;55.03;100906.22;5079424;28;45437;-61
2023/06/12 13:35:20;;;;;;;;;20.75;19.25;;;;;26.97;55.00;100901.91;5079298;28;45424;-63
2023/06/12 13:37:46;;;;;;;;;19.75;18.25;;;;;27.01;55.04;100902.44;5079036;28;45310;-61
2023/06/12 13:40:12;;;;;;;;;18.75;17.50;;;;;27.10;55.09;100901.41;5078687;28;46929;-61
2023/06/12 13:42:38;;;;;;;;;20.75;20.00;;;;;27.19;54.37;100894.84;5079143;28;45418;-60
2023/06/12 13:45:05;;;;;;;;;21.50;20.25;;;;;27.29;54.85;100890.03;5079122;28;45370;-62
2023/06/12 13:47:31;;;;;;;;;25.00;23.00;;;;;27.30;54.46;100886.25;5078735;28;45442;-61
2023/06/12 13:49:57;;;;;;;;;18.00;15.50;;;;;27.40;54.06;100886.03;5078716;28;46209;-61
2023/06/12 13:52:22;;;;;;;;;19.50;18.25;;;;;27.47;53.97;100887.94;5077743;28;45342;-62
2023/06/12 13:54:47;;;;;;;;;20.50;18.25;;;;;27.46;54.19;100883.44;5075059;27;45602;-61
2023/06/12 13:57:13;;;;;;;;;21.00;19.25;;;;;27.48;53.88;100877.75;5078512;28;51264;-60
2023/06/12 13:59:38;;;;;;;;;23.75;21.75;;;;;27.41;54.36;100883.09;5078724;28;45158;-61
2023/06/12 14:02:04;;;;;;;;;25.25;23.25;;;;;27.34;54.09;100879.34;5078698;28;57275;-61
2023/06/12 14:04:30;;;;;;;;;20.75;20.50;;;;;27.37;54.71;100878.13;5079125;28;45343;-60
2023/06/12 14:06:57;;;;;;;;;20.50;16.50;;;;;27.39;54.62;100874.16;5078861;28;45519;-60
2023/06/12 14:09:22;;;;;;;;;24.50;21.25;;;;;27.35;54.45;100872.78;5080096;28;45363;-60
2023/06/12 14:11:48;;;;;;;;;20.25;19.00;;;;;27.40;54.58;100864.00;5081800;28;52727;-61
2023/06/12 14:14:13;;;;;;;;;21.50;19.00;;;;;27.49;54.37;100862.94;5082526;28;45296;-61
2023/06/12 14:16:39;;;;;;;;;16.75;15.00;;;;;27.57;54.58;100862.94;5082405;28;45612;-61
2023/06/12 14:19:05;;;;;;;;;23.00;19.75;;;;;27.66;53.87;100858.25;5081348;28;45521;-61
2023/06/12 14:21:30;;;;;;;;;17.25;14.50;;;;;27.73;53.56;100859.28;5082086;28;45351;-61
2023/06/12 14:23:56;;;;;;;;;20.00;17.25;;;;;27.71;54.31;100856.72;5081709;27;49896;-62
2023/06/12 14:26:22;;;;;;;;;20.25;18.00;;;;;27.80;54.04;100854.78;5081969;28;45451;-61
2023/06/12 14:28:48;;;;;;;;;18.75;17.50;;;;;27.88;53.05;100859.38;5081783;28;46468;-61
2023/06/12 14:31:13;;;;;;;;;20.25;18.50;;;;;27.88;53.11;100848.38;5082139;28;45264;-60
2023/06/12 14:33:38;;;;;;;;;21.50;19.75;;;;;27.96;53.13;100846.44;5088063;27;46543;-62
2023/06/12 14:36:07;;;;;;;;;19.25;16.50;;;;;28.16;52.14;100836.66;5082178;28;45529;-61
2023/06/12 14:38:33;;;;;;;;;17.50;17.25;;;;;28.32;51.88;100832.97;5081789;28;46082;-61
2023/06/12 14:40:58;;;;;;;;;18.50;17.50;;;;;28.51;51.23;100840.72;5092256;27;45389;-59
2023/06/12 14:43:23;;;;;;;;;19.00;17.50;;;;;28.70;51.23;100835.75;5081709;28;48434;-60
2023/06/12 14:45:49;;;;;;;;;20.75;20.75;;;;;28.87;49.23;100834.59;5081598;28;45382;-61
2023/06/12 14:48:16;;;;;;;;;17.25;17.25;;;;;29.07;49.73;100837.69;5081559;28;46143;-60
2023/06/12 14:50:41;;;;;;;;;16.25;15.75;;;;;29.32;49.35;100828.09;5082206;28;45341;-61
2023/06/12 14:53:09;;;;;;;;;16.75;16.25;;;;;29.63;49.25;100819.63;5081118;28;55314;-61
2023/06/12 14:55:34;;;;;;;;;23.25;21.25;;;;;29.94;46.85;100819.44;5081469;28;46162;-62
2023/06/12 14:57:59;;;;;;;;;19.75;18.00;;;;;30.22;45.97;100814.00;5081268;28;45585;-60
2023/06/12 15:00:25;;;;;;;;;16.50;15.75;;;;;30.56;46.04;100816.06;5081808;28;45382;-61
2023/06/12 15:02:50;;;;;;;;;16.50;15.25;;;;;30.81;46.09;100807.16;5081698;28;46176;-60
2023/06/12 15:05:16;;;;;;;;;14.00;14.00;;;;;31.06;45.05;100813.09;5081286;28;45362;-60
2023/06/12 15:07:41;;;;;;;;;19.00;16.50;;;;;31.20;43.53;100808.53;5081066;28;45382;-62
2023/06/12 15:10:07;;;;;;;;;18.50;17.00;;;;;31.32;44.21;100797.72;5080255;28;45368;-62
2023/06/12 15:12:32;;;;;;;;;18.25;18.25;;;;;31.36;43.92;100810.13;5080548;28;45326;-61
2023/06/12 15:14:57;;;;;;;;;19.50;18.75;;;;;31.35;42.87;100795.41;5081642;28;45358;-62
2023/06/12 15:17:23;;;;;;;;;15.75;15.75;;;;;31.52;43.07;100788.47;5081320;28;56714;-66
2023/06/12 15:19:52;;;;;;;;;22.00;19.00;;;;;31.70;43.08;100784.31;5077972;28;47566;-66
2023/06/12 15:22:17;;;;;;;;;18.75;17.75;;;;;31.92;43.05;100794.22;5078994;28;45530;-66
2023/06/12 15:24:43;;;;;;;;;16.25;16.00;;;;;32.04;42.13;100786.16;5078072;28;45348;-65
2023/06/12 15:27:08;;;;;;;;;21.25;16.50;;;;;32.11;41.17;100787.88;5077403;28;63583;-66
2023/06/12 15:29:33;;;;;;;;;17.75;16.75;;;;;32.23;41.86;100777.91;5078728;28;54295;-66
2023/06/12 15:32:04;;;;;;;;;14.75;14.50;;;;;32.29;41.29;100771.50;5077988;28;45437;-65
2023/06/12 15:34:29;;;;;;;;;19.00;19.00;;;;;32.44;41.57;100778.78;5061931;28;45812;-65
2023/06/12 15:36:54;;;;;;;;;17.00;16.00;;;;;32.33;41.18;100773.88;5080917;28;45325;-65
2023/06/12 15:39:20;;;;;;;;;18.00;15.75;;;;;32.25;42.26;100774.91;5079072;28;49403;-66
2023/06/12 15:41:45;;;;;;;;;16.25;16.25;;;;;32.27;41.54;100767.22;5062887;28;45276;-65